sensor_id;sensor_type;location;lat;lon;timestamp;temperature;humidity
21255;DHT22;10785;50.674;17.954;2024-03-23T00:54:13;9.70;1.00
21255;DHT22;10785;50.674;17.954;2024-03-23T00:56:39;9.50;1.00
21255;DHT22;10785;50.674;17.954;2024-03-23T00:59:07;9.50;1.00
21255;DHT22;10785;50.674;17.954;2024-03-23T01:01:33;9.40;99.90
21255;DHT22;10785;50.674;17.954;2024-03-23T01:04:02;9.40;43.90
21255;DHT22;10785;50.674;17.954;2024-03-23T01:06:29;9.40;99.90
21255;DHT22;10785;50.674;17.954;2024-03-23T01:08:56;9.40;1.00
21255;DHT22;10785;50.674;17.954;2024-03-23T01:11:24;9.30;12.90
21255;DHT22;10785;50.674;17.954;2024-03-23T01:13:53;9.30;99.90
21255;DHT22;10785;50.674;17.954;2024-03-23T01:16:22;9.20;1.00
21255;DHT22;10785;50.674;17.954;2024-03-23T01:18:50;9.20;1.00
21255;DHT22;10785;50.674;17.954;2024-03-23T01:21:16;9.20;1.00
21255;DHT22;10785;50.674;17.954;2024-03-23T01:23:44;9.30;1.00
21255;DHT22;10785;50.674;17.954;2024-03-23T01:26:10;9.10;1.00
21255;DHT22;10785;50.674;17.954;2024-03-23T01:28:39;9.10;58.50
21255;DHT22;10785;50.674;17.954;2024-03-23T01:31:06;9.10;99.90
21255;DHT22;10785;50.674;17.954;2024-03-23T01:33:33;9.10;99.90
21255;DHT22;10785;50.674;17.954;2024-03-23T01:36:00;9.10;99.90
21255;DHT22;10785;50.674;17.954;2024-03-23T01:38:28;9.10;99.90
21255;DHT22;10785;50.674;17.954;2024-03-23T01:40:57;9.00;99.90
21255;DHT22;10785;50.674;17.954;2024-03-23T01:43:24;9.00;99.90
21255;DHT22;10785;50.674;17.954;2024-03-23T01:45:53;9.00;99.90
21255;DHT22;10785;50.674;17.954;2024-03-23T01:48:20;9.00;99.90
21255;DHT22;10785;50.674;17.954;2024-03-23T01:50:47;9.00;99.90
21255;DHT22;10785;50.674;17.954;2024-03-23T01:53:15;9.00;99.90
21255;DHT22;10785;50.674;17.954;2024-03-23T01:55:44;9.00;99.90
21255;DHT22;10785;50.674;17.954;2024-03-23T01:58:11;9.00;99.90
21255;DHT22;10785;50.674;17.954;2024-03-23T02:00:38;9.00;99.90
21255;DHT22;10785;50.674;17.954;2024-03-23T02:03:25;9.10;99.90
21255;DHT22;10785;50.674;17.954;2024-03-23T02:05:53;8.90;99.90
21255;DHT22;10785;50.674;17.954;2024-03-23T02:08:22;8.90;99.90
21255;DHT22;10785;50.674;17.954;2024-03-23T02:10:49;8.90;99.90
21255;DHT22;10785;50.674;17.954;2024-03-23T02:13:19;8.90;99.90
21255;DHT22;10785;50.674;17.954;2024-03-23T02:15:47;8.90;99.90
21255;DHT22;10785;50.674;17.954;2024-03-23T02:18:15;8.90;99.90
21255;DHT22;10785;50.674;17.954;2024-03-23T02:20:43;8.80;99.90
21255;DHT22;10785;50.674;17.954;2024-03-23T02:23:15;8.80;99.90
21255;DHT22;10785;50.674;17.954;2024-03-23T02:25:42;8.80;99.90
21255;DHT22;10785;50.674;17.954;2024-03-23T02:28:10;8.80;99.90
21255;DHT22;10785;50.674;17.954;2024-03-23T02:30:38;8.80;99.90
21255;DHT22;10785;50.674;17.954;2024-03-23T02:33:05;8.90;99.90
21255;DHT22;10785;50.674;17.954;2024-03-23T02:35:33;8.70;99.90
21255;DHT22;10785;50.674;17.954;2024-03-23T02:38:00;8.80;99.90
21255;DHT22;10785;50.674;17.954;2024-03-23T02:40:29;8.80;99.90
21255;DHT22;10785;50.674;17.954;2024-03-23T02:42:55;8.80;99.90
21255;DHT22;10785;50.674;17.954;2024-03-23T02:45:23;8.70;99.90
21255;DHT22;10785;50.674;17.954;2024-03-23T02:47:50;8.70;99.90
21255;DHT22;10785;50.674;17.954;2024-03-23T02:50:18;8.70;99.90
21255;DHT22;10785;50.674;17.954;2024-03-23T02:52:45;8.70;99.90
21255;DHT22;10785;50.674;17.954;2024-03-23T02:55:13;8.70;99.90
21255;DHT22;10785;50.674;17.954;2024-03-23T02:57:41;8.70;99.90
21255;DHT22;10785;50.674;17.954;2024-03-23T03:00:10;8.70;99.90
21255;DHT22;10785;50.674;17.954;2024-03-23T03:02:37;8.70;99.90
21255;DHT22;10785;50.674;17.954;2024-03-23T03:05:06;8.70;99.90
21255;DHT22;10785;50.674;17.954;2024-03-23T03:07:32;8.70;99.90
21255;DHT22;10785;50.674;17.954;2024-03-23T03:10:00;8.60;99.90
21255;DHT22;10785;50.674;17.954;2024-03-23T03:12:26;8.70;99.90
21255;DHT22;10785;50.674;17.954;2024-03-23T03:14:55;9.00;99.90
21255;DHT22;10785;50.674;17.954;2024-03-23T03:17:22;8.70;99.90
21255;DHT22;10785;50.674;17.954;2024-03-23T03:19:50;8.70;99.90
21255;DHT22;10785;50.674;17.954;2024-03-23T03:22:22;8.70;99.90
21255;DHT22;10785;50.674;17.954;2024-03-23T03:24:50;8.60;99.90
21255;DHT22;10785;50.674;17.954;2024-03-23T03:27:16;8.70;99.90
21255;DHT22;10785;50.674;17.954;2024-03-23T03:29:44;8.70;99.90
21255;DHT22;10785;50.674;17.954;2024-03-23T03:32:12;8.70;99.90
21255;DHT22;10785;50.674;17.954;2024-03-23T03:34:40;8.70;99.90
21255;DHT22;10785;50.674;17.954;2024-03-23T03:37:06;8.70;99.90
21255;DHT22;10785;50.674;17.954;2024-03-23T03:39:34;8.70;99.90
21255;DHT22;10785;50.674;17.954;2024-03-23T03:42:00;8.70;99.90
21255;DHT22;10785;50.674;17.954;2024-03-23T03:44:33;8.70;99.90
21255;DHT22;10785;50.674;17.954;2024-03-23T03:46:59;8.70;99.90
21255;DHT22;10785;50.674;17.954;2024-03-23T03:49:28;8.70;99.90
21255;DHT22;10785;50.674;17.954;2024-03-23T03:51:55;8.70;99.90
21255;DHT22;10785;50.674;17.954;2024-03-23T03:54:22;8.70;99.90
21255;DHT22;10785;50.674;17.954;2024-03-23T03:59:17;8.70;99.90
21255;DHT22;10785;50.674;17.954;2024-03-23T04:01:44;8.70;99.90
21255;DHT22;10785;50.674;17.954;2024-03-23T04:04:11;9.10;99.90
21255;DHT22;10785;50.674;17.954;2024-03-23T04:06:39;8.70;99.90
21255;DHT22;10785;50.674;17.954;2024-03-23T04:09:07;8.70;99.90
21255;DHT22;10785;50.674;17.954;2024-03-23T04:11:33;8.70;99.90
21255;DHT22;10785;50.674;17.954;2024-03-23T04:14:01;8.70;99.90
21255;DHT22;10785;50.674;17.954;2024-03-23T04:16:28;8.70;99.90
21255;DHT22;10785;50.674;17.954;2024-03-23T04:18:56;9.00;99.90
21255;DHT22;10785;50.674;17.954;2024-03-23T04:21:22;8.70;99.90
21255;DHT22;10785;50.674;17.954;2024-03-23T04:23:52;8.70;99.90
21255;DHT22;10785;50.674;17.954;2024-03-23T04:26:18;8.70;99.90
21255;DHT22;10785;50.674;17.954;2024-03-23T04:28:46;8.70;99.90
21255;DHT22;10785;50.674;17.954;2024-03-23T04:31:13;8.70;99.90
21255;DHT22;10785;50.674;17.954;2024-03-23T04:33:40;8.70;99.90
21255;DHT22;10785;50.674;17.954;2024-03-23T04:36:07;8.70;99.90
21255;DHT22;10785;50.674;17.954;2024-03-23T04:38:35;8.70;99.90
21255;DHT22;10785;50.674;17.954;2024-03-23T04:41:04;8.70;99.90
21255;DHT22;10785;50.674;17.954;2024-03-23T04:43:32;8.70;99.90
21255;DHT22;10785;50.674;17.954;2024-03-23T04:45:59;8.70;99.90
21255;DHT22;10785;50.674;17.954;2024-03-23T04:48:27;8.80;99.90
21255;DHT22;10785;50.674;17.954;2024-03-23T04:50:58;8.80;99.90
21255;DHT22;10785;50.674;17.954;2024-03-23T04:53:25;8.80;99.90
21255;DHT22;10785;50.674;17.954;2024-03-23T04:55:55;9.20;99.90
21255;DHT22;10785;50.674;17.954;2024-03-23T04:58:24;8.90;24.00
21255;DHT22;10785;50.674;17.954;2024-03-23T05:00:55;9.20;1.00
21255;DHT22;10785;50.674;17.954;2024-03-23T05:03:22;9.40;99.90
21255;DHT22;10785;50.674;17.954;2024-03-23T05:05:50;9.10;1.00
21255;DHT22;10785;50.674;17.954;2024-03-23T05:08:17;9.20;1.00
21255;DHT22;10785;50.674;17.954;2024-03-23T05:10:44;9.30;99.90
21255;DHT22;10785;50.674;17.954;2024-03-23T05:13:11;9.20;1.00
21255;DHT22;10785;50.674;17.954;2024-03-23T05:15:40;9.20;1.00
21255;DHT22;10785;50.674;17.954;2024-03-23T05:18:07;9.20;99.90
21255;DHT22;10785;50.674;17.954;2024-03-23T05:20:35;10.90;99.90
21255;DHT22;10785;50.674;17.954;2024-03-23T05:23:01;9.10;1.00
21255;DHT22;10785;50.674;17.954;2024-03-23T05:25:29;9.10;1.00
21255;DHT22;10785;50.674;17.954;2024-03-23T05:27:55;9.10;1.00
21255;DHT22;10785;50.674;17.954;2024-03-23T05:30:23;9.10;99.90
21255;DHT22;10785;50.674;17.954;2024-03-23T05:32:58;9.20;99.90
21255;DHT22;10785;50.674;17.954;2024-03-23T05:35:25;9.20;99.90
21255;DHT22;10785;50.674;17.954;2024-03-23T05:37:52;9.30;99.90
21255;DHT22;10785;50.674;17.954;2024-03-23T05:40:20;9.30;1.00
21255;DHT22;10785;50.674;17.954;2024-03-23T05:42:46;9.40;1.00
21255;DHT22;10785;50.674;17.954;2024-03-23T05:45:15;9.50;1.00
21255;DHT22;10785;50.674;17.954;2024-03-23T05:47:44;9.60;1.00
21255;DHT22;10785;50.674;17.954;2024-03-23T05:50:14;9.70;99.90
21255;DHT22;10785;50.674;17.954;2024-03-23T05:52:40;9.80;1.00
21255;DHT22;10785;50.674;17.954;2024-03-23T05:55:09;9.80;1.00
21255;DHT22;10785;50.674;17.954;2024-03-23T05:57:36;9.90;99.90
21255;DHT22;10785;50.674;17.954;2024-03-23T06:00:05;10.10;30.00
21255;DHT22;10785;50.674;17.954;2024-03-23T06:02:38;10.40;1.00
21255;DHT22;10785;50.674;17.954;2024-03-23T06:05:06;10.60;1.00
21255;DHT22;10785;50.674;17.954;2024-03-23T06:07:34;10.90;1.00
21255;DHT22;10785;50.674;17.954;2024-03-23T06:10:01;11.00;1.00
21255;DHT22;10785;50.674;17.954;2024-03-23T06:12:28;11.10;99.90
21255;DHT22;10785;50.674;17.954;2024-03-23T06:14:56;11.20;99.90
21255;DHT22;10785;50.674;17.954;2024-03-23T06:17:22;11.30;1.00
21255;DHT22;10785;50.674;17.954;2024-03-23T06:19:50;11.50;1.00
21255;DHT22;10785;50.674;17.954;2024-03-23T06:22:43;11.70;1.00
21255;DHT22;10785;50.674;17.954;2024-03-23T06:25:11;12.00;1.00
21255;DHT22;10785;50.674;17.954;2024-03-23T06:27:38;12.20;1.00
21255;DHT22;10785;50.674;17.954;2024-03-23T06:30:07;12.30;1.00
21255;DHT22;10785;50.674;17.954;2024-03-23T06:32:33;12.30;1.00
21255;DHT22;10785;50.674;17.954;2024-03-23T06:35:01;12.40;1.00
21255;DHT22;10785;50.674;17.954;2024-03-23T06:37:34;12.30;1.00
21255;DHT22;10785;50.674;17.954;2024-03-23T06:40:04;12.50;1.00
21255;DHT22;10785;50.674;17.954;2024-03-23T06:42:32;12.60;1.00
21255;DHT22;10785;50.674;17.954;2024-03-23T06:45:00;12.70;1.00
21255;DHT22;10785;50.674;17.954;2024-03-23T06:47:26;12.60;99.90
21255;DHT22;10785;50.674;17.954;2024-03-23T06:49:54;12.80;99.90
21255;DHT22;10785;50.674;17.954;2024-03-23T06:52:20;12.90;99.90
21255;DHT22;10785;50.674;17.954;2024-03-23T06:54:48;13.20;99.90
21255;DHT22;10785;50.674;17.954;2024-03-23T06:57:16;13.40;99.90
21255;DHT22;10785;50.674;17.954;2024-03-23T06:59:43;13.50;99.90
21255;DHT22;10785;50.674;17.954;2024-03-23T07:02:10;13.70;99.90
21255;DHT22;10785;50.674;17.954;2024-03-23T07:04:38;14.00;95.50
21255;DHT22;10785;50.674;17.954;2024-03-23T07:07:05;14.00;73.10
21255;DHT22;10785;50.674;17.954;2024-03-23T07:09:33;13.80;55.70
21255;DHT22;10785;50.674;17.954;2024-03-23T07:12:00;13.90;85.90
21255;DHT22;10785;50.674;17.954;2024-03-23T07:14:29;13.80;45.40
21255;DHT22;10785;50.674;17.954;2024-03-23T07:16:55;13.80;83.10
21255;DHT22;10785;50.674;17.954;2024-03-23T07:19:23;13.80;80.00
21255;DHT22;10785;50.674;17.954;2024-03-23T07:21:52;13.90;60.40
21255;DHT22;10785;50.674;17.954;2024-03-23T07:24:19;14.00;73.30
21255;DHT22;10785;50.674;17.954;2024-03-23T07:26:46;14.10;46.10
21255;DHT22;10785;50.674;17.954;2024-03-23T07:29:14;14.20;26.10
21255;DHT22;10785;50.674;17.954;2024-03-23T07:31:42;14.20;23.80
21255;DHT22;10785;50.674;17.954;2024-03-23T07:34:10;14.40;7.10
21255;DHT22;10785;50.674;17.954;2024-03-23T07:36:36;14.40;1.00
21255;DHT22;10785;50.674;17.954;2024-03-23T07:39:04;14.40;1.00
21255;DHT22;10785;50.674;17.954;2024-03-23T07:41:30;14.60;1.00
21255;DHT22;10785;50.674;17.954;2024-03-23T07:43:58;14.70;1.00
21255;DHT22;10785;50.674;17.954;2024-03-23T07:46:25;14.90;1.00
21255;DHT22;10785;50.674;17.954;2024-03-23T07:48:54;14.90;1.00
21255;DHT22;10785;50.674;17.954;2024-03-23T07:51:21;15.00;1.00
21255;DHT22;10785;50.674;17.954;2024-03-23T07:53:49;15.30;1.00
21255;DHT22;10785;50.674;17.954;2024-03-23T07:56:16;15.30;1.00
21255;DHT22;10785;50.674;17.954;2024-03-23T07:58:45;15.30;1.00
21255;DHT22;10785;50.674;17.954;2024-03-23T08:01:15;15.90;1.00
21255;DHT22;10785;50.674;17.954;2024-03-23T08:03:44;15.20;1.00
21255;DHT22;10785;50.674;17.954;2024-03-23T08:06:13;15.10;1.00
21255;DHT22;10785;50.674;17.954;2024-03-23T08:08:43;15.10;1.00
21255;DHT22;10785;50.674;17.954;2024-03-23T08:11:10;15.00;1.00
21255;DHT22;10785;50.674;17.954;2024-03-23T08:13:39;15.00;1.00
21255;DHT22;10785;50.674;17.954;2024-03-23T08:16:06;15.20;1.00
21255;DHT22;10785;50.674;17.954;2024-03-23T08:18:35;15.40;1.00
21255;DHT22;10785;50.674;17.954;2024-03-23T08:21:02;15.60;1.00
21255;DHT22;10785;50.674;17.954;2024-03-23T08:23:32;15.90;1.00
21255;DHT22;10785;50.674;17.954;2024-03-23T08:26:01;16.00;1.00
21255;DHT22;10785;50.674;17.954;2024-03-23T08:28:29;16.10;1.00
21255;DHT22;10785;50.674;17.954;2024-03-23T08:30:56;16.20;1.00
21255;DHT22;10785;50.674;17.954;2024-03-23T08:33:24;16.30;1.00
21255;DHT22;10785;50.674;17.954;2024-03-23T08:35:54;16.40;1.00
21255;DHT22;10785;50.674;17.954;2024-03-23T08:38:22;16.50;1.00
21255;DHT22;10785;50.674;17.954;2024-03-23T08:40:58;16.50;1.00
21255;DHT22;10785;50.674;17.954;2024-03-23T08:43:26;16.40;1.00
21255;DHT22;10785;50.674;17.954;2024-03-23T08:45:53;16.30;1.00
21255;DHT22;10785;50.674;17.954;2024-03-23T08:48:21;16.10;1.00
21255;DHT22;10785;50.674;17.954;2024-03-23T08:50:48;16.20;1.00
21255;DHT22;10785;50.674;17.954;2024-03-23T08:53:24;16.40;1.00
21255;DHT22;10785;50.674;17.954;2024-03-23T08:55:53;16.60;1.00
21255;DHT22;10785;50.674;17.954;2024-03-23T08:58:24;16.80;1.00
21255;DHT22;10785;50.674;17.954;2024-03-23T09:00:51;16.90;1.00
21255;DHT22;10785;50.674;17.954;2024-03-23T09:03:19;17.00;1.00
21255;DHT22;10785;50.674;17.954;2024-03-23T09:05:46;16.90;1.00
21255;DHT22;10785;50.674;17.954;2024-03-23T09:08:13;17.00;1.00
21255;DHT22;10785;50.674;17.954;2024-03-23T09:10:41;17.10;1.00
21255;DHT22;10785;50.674;17.954;2024-03-23T09:13:09;17.10;1.00
21255;DHT22;10785;50.674;17.954;2024-03-23T09:15:46;17.10;1.00
21255;DHT22;10785;50.674;17.954;2024-03-23T09:18:14;18.70;1.00
21255;DHT22;10785;50.674;17.954;2024-03-23T09:20:40;17.50;1.00
21255;DHT22;10785;50.674;17.954;2024-03-23T09:23:08;17.60;1.00
21255;DHT22;10785;50.674;17.954;2024-03-23T09:25:39;17.80;1.00
21255;DHT22;10785;50.674;17.954;2024-03-23T09:28:07;17.90;1.00
21255;DHT22;10785;50.674;17.954;2024-03-23T09:30:36;15.30;1.00
21255;DHT22;10785;50.674;17.954;2024-03-23T09:33:09;17.70;1.00
21255;DHT22;10785;50.674;17.954;2024-03-23T09:35:37;17.70;1.00
21255;DHT22;10785;50.674;17.954;2024-03-23T09:38:04;17.70;1.00
21255;DHT22;10785;50.674;17.954;2024-03-23T09:40:31;17.60;1.00
21255;DHT22;10785;50.674;17.954;2024-03-23T09:42:59;17.60;1.00
21255;DHT22;10785;50.674;17.954;2024-03-23T09:45:28;17.60;1.00
21255;DHT22;10785;50.674;17.954;2024-03-23T09:47:57;17.60;1.00
21255;DHT22;10785;50.674;17.954;2024-03-23T09:50:24;17.70;1.00
21255;DHT22;10785;50.674;17.954;2024-03-23T09:52:51;17.50;1.00
21255;DHT22;10785;50.674;17.954;2024-03-23T09:55:18;17.50;1.00
21255;DHT22;10785;50.674;17.954;2024-03-23T09:57:46;17.50;1.00
21255;DHT22;10785;50.674;17.954;2024-03-23T10:00:13;17.40;1.00
21255;DHT22;10785;50.674;17.954;2024-03-23T10:02:42;17.50;1.00
21255;DHT22;10785;50.674;17.954;2024-03-23T10:05:22;17.60;1.00
21255;DHT22;10785;50.674;17.954;2024-03-23T10:07:49;17.80;1.00
21255;DHT22;10785;50.674;17.954;2024-03-23T10:10:17;18.00;1.00
21255;DHT22;10785;50.674;17.954;2024-03-23T10:12:46;18.30;1.00
21255;DHT22;10785;50.674;17.954;2024-03-23T10:15:21;18.30;1.00
21255;DHT22;10785;50.674;17.954;2024-03-23T10:17:48;18.20;1.00
21255;DHT22;10785;50.674;17.954;2024-03-23T10:20:21;18.20;1.00
21255;DHT22;10785;50.674;17.954;2024-03-23T10:22:49;18.30;1.00
21255;DHT22;10785;50.674;17.954;2024-03-23T10:25:18;18.30;1.00
21255;DHT22;10785;50.674;17.954;2024-03-23T10:27:58;18.30;1.00
21255;DHT22;10785;50.674;17.954;2024-03-23T10:30:27;18.40;1.00
21255;DHT22;10785;50.674;17.954;2024-03-23T10:33:07;18.40;1.00
21255;DHT22;10785;50.674;17.954;2024-03-23T10:35:36;18.40;1.00
21255;DHT22;10785;50.674;17.954;2024-03-23T10:38:05;18.40;1.00
21255;DHT22;10785;50.674;17.954;2024-03-23T10:40:34;18.40;1.00
21255;DHT22;10785;50.674;17.954;2024-03-23T10:43:03;18.50;1.00
21255;DHT22;10785;50.674;17.954;2024-03-23T10:45:31;18.50;1.00
21255;DHT22;10785;50.674;17.954;2024-03-23T10:47:57;18.40;1.00
21255;DHT22;10785;50.674;17.954;2024-03-23T10:50:26;18.50;1.00
21255;DHT22;10785;50.674;17.954;2024-03-23T10:52:54;18.60;1.00
21255;DHT22;10785;50.674;17.954;2024-03-23T10:55:25;18.70;1.00
21255;DHT22;10785;50.674;17.954;2024-03-23T10:57:54;18.70;1.00
21255;DHT22;10785;50.674;17.954;2024-03-23T11:00:24;18.80;1.00
21255;DHT22;10785;50.674;17.954;2024-03-23T11:02:51;18.80;1.00
21255;DHT22;10785;50.674;17.954;2024-03-23T11:05:29;18.90;1.00
21255;DHT22;10785;50.674;17.954;2024-03-23T11:07:57;19.00;1.00
21255;DHT22;10785;50.674;17.954;2024-03-23T11:10:25;19.20;1.00
21255;DHT22;10785;50.674;17.954;2024-03-23T11:12:53;19.30;1.00
21255;DHT22;10785;50.674;17.954;2024-03-23T11:15:21;19.20;1.00
21255;DHT22;10785;50.674;17.954;2024-03-23T11:18:02;19.20;1.00
21255;DHT22;10785;50.674;17.954;2024-03-23T11:20:34;19.30;1.00
21255;DHT22;10785;50.674;17.954;2024-03-23T11:23:03;19.30;1.00
21255;DHT22;10785;50.674;17.954;2024-03-23T11:25:30;19.40;1.00
21255;DHT22;10785;50.674;17.954;2024-03-23T11:28:09;19.80;1.00
21255;DHT22;10785;50.674;17.954;2024-03-23T11:30:38;19.90;1.00
21255;DHT22;10785;50.674;17.954;2024-03-23T11:33:05;19.90;1.00
21255;DHT22;10785;50.674;17.954;2024-03-23T11:35:34;20.00;1.00
21255;DHT22;10785;50.674;17.954;2024-03-23T11:38:03;20.10;1.00
21255;DHT22;10785;50.674;17.954;2024-03-23T11:40:31;20.60;1.00
21255;DHT22;10785;50.674;17.954;2024-03-23T11:42:59;20.80;1.00
21255;DHT22;10785;50.674;17.954;2024-03-23T11:45:27;20.90;1.00
21255;DHT22;10785;50.674;17.954;2024-03-23T11:48:08;21.00;1.00
21255;DHT22;10785;50.674;17.954;2024-03-23T11:50:38;21.30;1.00
21255;DHT22;10785;50.674;17.954;2024-03-23T11:53:15;21.30;1.00
21255;DHT22;10785;50.674;17.954;2024-03-23T11:55:47;21.30;1.00
21255;DHT22;10785;50.674;17.954;2024-03-23T11:58:15;20.80;1.00
21255;DHT22;10785;50.674;17.954;2024-03-23T12:00:48;20.50;1.00
21255;DHT22;10785;50.674;17.954;2024-03-23T12:03:16;20.30;1.00
21255;DHT22;10785;50.674;17.954;2024-03-23T12:05:48;20.10;1.00
21255;DHT22;10785;50.674;17.954;2024-03-23T12:08:22;21.20;1.00
21255;DHT22;10785;50.674;17.954;2024-03-23T12:10:51;19.40;1.00
21255;DHT22;10785;50.674;17.954;2024-03-23T12:13:20;19.20;1.00
21255;DHT22;10785;50.674;17.954;2024-03-23T12:15:50;19.00;1.00
21255;DHT22;10785;50.674;17.954;2024-03-23T12:18:17;18.70;1.00
21255;DHT22;10785;50.674;17.954;2024-03-23T12:20:50;18.40;1.00
21255;DHT22;10785;50.674;17.954;2024-03-23T12:23:17;18.20;1.00
21255;DHT22;10785;50.674;17.954;2024-03-23T12:25:49;17.80;1.00
21255;DHT22;10785;50.674;17.954;2024-03-23T12:28:15;17.20;1.00
21255;DHT22;10785;50.674;17.954;2024-03-23T12:30:43;16.40;1.00
21255;DHT22;10785;50.674;17.954;2024-03-23T12:33:10;15.80;1.00
21255;DHT22;10785;50.674;17.954;2024-03-23T12:35:37;15.20;1.00
21255;DHT22;10785;50.674;17.954;2024-03-23T12:38:04;14.70;1.00
21255;DHT22;10785;50.674;17.954;2024-03-23T12:40:32;14.20;30.70
21255;DHT22;10785;50.674;17.954;2024-03-23T12:43:00;13.80;99.90
21255;DHT22;10785;50.674;17.954;2024-03-23T12:45:27;13.60;1.00
21255;DHT22;10785;50.674;17.954;2024-03-23T12:47:54;13.30;99.90
21255;DHT22;10785;50.674;17.954;2024-03-23T12:50:22;13.10;99.90
21255;DHT22;10785;50.674;17.954;2024-03-23T12:52:49;13.00;99.90
21255;DHT22;10785;50.674;17.954;2024-03-23T12:55:16;12.90;1.00
21255;DHT22;10785;50.674;17.954;2024-03-23T12:57:44;12.90;1.00
21255;DHT22;10785;50.674;17.954;2024-03-23T13:00:14;12.80;1.00
21255;DHT22;10785;50.674;17.954;2024-03-23T13:02:42;12.70;1.00
21255;DHT22;10785;50.674;17.954;2024-03-23T13:05:09;12.70;1.00
21255;DHT22;10785;50.674;17.954;2024-03-23T13:07:36;12.70;1.00
21255;DHT22;10785;50.674;17.954;2024-03-23T13:10:05;12.70;1.00
21255;DHT22;10785;50.674;17.954;2024-03-23T13:12:32;12.70;99.90
21255;DHT22;10785;50.674;17.954;2024-03-23T13:15:00;12.60;99.90
21255;DHT22;10785;50.674;17.954;2024-03-23T13:17:34;12.60;99.90
21255;DHT22;10785;50.674;17.954;2024-03-23T13:20:02;12.60;1.00
21255;DHT22;10785;50.674;17.954;2024-03-23T13:22:31;12.60;1.00
21255;DHT22;10785;50.674;17.954;2024-03-23T13:24:59;12.60;1.00
21255;DHT22;10785;50.674;17.954;2024-03-23T13:27:26;12.60;1.00
21255;DHT22;10785;50.674;17.954;2024-03-23T13:29:54;12.60;1.00
21255;DHT22;10785;50.674;17.954;2024-03-23T13:32:20;12.60;99.90
21255;DHT22;10785;50.674;17.954;2024-03-23T13:34:49;12.50;99.90
21255;DHT22;10785;50.674;17.954;2024-03-23T13:37:16;12.50;99.90
21255;DHT22;10785;50.674;17.954;2024-03-23T13:39:44;12.50;99.90
21255;DHT22;10785;50.674;17.954;2024-03-23T13:42:11;12.80;63.20
21255;DHT22;10785;50.674;17.954;2024-03-23T13:44:39;12.50;77.70
21255;DHT22;10785;50.674;17.954;2024-03-23T13:47:05;12.50;99.90
21255;DHT22;10785;50.674;17.954;2024-03-23T13:49:33;12.50;8.10
21255;DHT22;10785;50.674;17.954;2024-03-23T13:52:01;12.50;20.60
21255;DHT22;10785;50.674;17.954;2024-03-23T13:54:29;12.50;1.00
21255;DHT22;10785;50.674;17.954;2024-03-23T13:56:56;12.50;1.00
21255;DHT22;10785;50.674;17.954;2024-03-23T13:59:23;12.50;1.00
21255;DHT22;10785;50.674;17.954;2024-03-23T14:01:50;12.60;1.00
21255;DHT22;10785;50.674;17.954;2024-03-23T14:04:19;12.60;1.00
21255;DHT22;10785;50.674;17.954;2024-03-23T14:06:47;12.70;1.00
21255;DHT22;10785;50.674;17.954;2024-03-23T14:09:16;12.80;1.00
21255;DHT22;10785;50.674;17.954;2024-03-23T14:11:48;12.90;1.00
21255;DHT22;10785;50.674;17.954;2024-03-23T14:14:15;12.90;1.00
21255;DHT22;10785;50.674;17.954;2024-03-23T14:16:43;13.10;1.00
21255;DHT22;10785;50.674;17.954;2024-03-23T14:19:11;13.20;1.00
21255;DHT22;10785;50.674;17.954;2024-03-23T14:21:38;13.30;1.00
21255;DHT22;10785;50.674;17.954;2024-03-23T14:24:06;13.30;1.00
21255;DHT22;10785;50.674;17.954;2024-03-23T14:26:34;13.30;1.00
21255;DHT22;10785;50.674;17.954;2024-03-23T14:29:03;13.30;1.00
21255;DHT22;10785;50.674;17.954;2024-03-23T14:31:30;13.30;1.00
21255;DHT22;10785;50.674;17.954;2024-03-23T14:33:58;13.40;1.00
21255;DHT22;10785;50.674;17.954;2024-03-23T14:36:26;13.30;1.00
21255;DHT22;10785;50.674;17.954;2024-03-23T14:38:54;13.30;1.00
21255;DHT22;10785;50.674;17.954;2024-03-23T14:41:20;13.20;1.00
21255;DHT22;10785;50.674;17.954;2024-03-23T14:43:49;12.60;1.00
21255;DHT22;10785;50.674;17.954;2024-03-23T14:46:17;12.40;1.00
21255;DHT22;10785;50.674;17.954;2024-03-23T14:48:46;12.20;1.00
21255;DHT22;10785;50.674;17.954;2024-03-23T14:51:12;12.00;1.00
21255;DHT22;10785;50.674;17.954;2024-03-23T14:53:41;12.00;1.00
21255;DHT22;10785;50.674;17.954;2024-03-23T14:56:08;11.20;1.00
21255;DHT22;10785;50.674;17.954;2024-03-23T14:58:38;10.60;1.00
21255;DHT22;10785;50.674;17.954;2024-03-23T15:01:07;10.30;1.00
21255;DHT22;10785;50.674;17.954;2024-03-23T15:03:37;10.00;1.00
21255;DHT22;10785;50.674;17.954;2024-03-23T15:06:06;9.80;1.00
21255;DHT22;10785;50.674;17.954;2024-03-23T15:08:37;9.60;1.00
21255;DHT22;10785;50.674;17.954;2024-03-23T15:11:05;9.40;1.00
21255;DHT22;10785;50.674;17.954;2024-03-23T15:13:33;9.60;1.00
21255;DHT22;10785;50.674;17.954;2024-03-23T15:16:00;9.20;1.00
21255;DHT22;10785;50.674;17.954;2024-03-23T15:18:31;9.20;1.00
21255;DHT22;10785;50.674;17.954;2024-03-23T15:21:00;8.90;1.00
21255;DHT22;10785;50.674;17.954;2024-03-23T15:23:29;8.60;1.00
21255;DHT22;10785;50.674;17.954;2024-03-23T15:25:56;8.60;1.00
21255;DHT22;10785;50.674;17.954;2024-03-23T15:28:24;8.40;1.00
21255;DHT22;10785;50.674;17.954;2024-03-23T15:30:58;8.20;1.00
21255;DHT22;10785;50.674;17.954;2024-03-23T15:33:26;8.30;1.00
21255;DHT22;10785;50.674;17.954;2024-03-23T15:35:54;8.20;1.00
21255;DHT22;10785;50.674;17.954;2024-03-23T15:38:25;8.10;1.00
21255;DHT22;10785;50.674;17.954;2024-03-23T15:40:52;8.00;1.00
21255;DHT22;10785;50.674;17.954;2024-03-23T15:43:20;8.00;1.00
21255;DHT22;10785;50.674;17.954;2024-03-23T15:45:54;7.70;1.00
21255;DHT22;10785;50.674;17.954;2024-03-23T15:48:21;7.90;1.00
21255;DHT22;10785;50.674;17.954;2024-03-23T15:50:51;7.90;1.00
21255;DHT22;10785;50.674;17.954;2024-03-23T15:53:21;8.00;1.00
21255;DHT22;10785;50.674;17.954;2024-03-23T15:55:53;7.70;1.00
21255;DHT22;10785;50.674;17.954;2024-03-23T15:58:21;7.70;1.00
21255;DHT22;10785;50.674;17.954;2024-03-23T16:00:54;7.70;1.00
21255;DHT22;10785;50.674;17.954;2024-03-23T16:03:22;7.70;1.00
21255;DHT22;10785;50.674;17.954;2024-03-23T16:05:52;7.70;1.00
21255;DHT22;10785;50.674;17.954;2024-03-23T16:08:22;7.50;1.00
21255;DHT22;10785;50.674;17.954;2024-03-23T16:10:48;7.60;1.00
21255;DHT22;10785;50.674;17.954;2024-03-23T16:13:17;7.50;1.00
21255;DHT22;10785;50.674;17.954;2024-03-23T16:15:44;7.50;1.00
21255;DHT22;10785;50.674;17.954;2024-03-23T16:18:12;7.30;1.00
21255;DHT22;10785;50.674;17.954;2024-03-23T16:20:39;7.20;1.00
21255;DHT22;10785;50.674;17.954;2024-03-23T16:23:06;6.90;1.00
21255;DHT22;10785;50.674;17.954;2024-03-23T16:25:35;7.20;1.00
21255;DHT22;10785;50.674;17.954;2024-03-23T16:28:04;7.50;1.00
21255;DHT22;10785;50.674;17.954;2024-03-23T16:30:31;6.90;1.00
21255;DHT22;10785;50.674;17.954;2024-03-23T16:32:59;6.90;1.00
21255;DHT22;10785;50.674;17.954;2024-03-23T16:35:25;7.00;1.00